createdAt,value
2024-04-02T00:00:06.583Z,72.14
2024-04-02T00:01:06.547Z,72.03
2024-04-02T00:02:06.975Z,72.03
2024-04-02T00:03:06.514Z,72.14
2024-04-02T00:04:06.521Z,72.14
2024-04-02T00:05:06.524Z,72.14
2024-04-02T00:06:06.519Z,72.24
2024-04-02T00:07:06.493Z,72.24
2024-04-02T00:08:06.524Z,72.14
2024-04-02T00:09:06.460Z,72.24
2024-04-02T00:10:06.466Z,72.14
2024-04-02T00:11:06.501Z,72.14
2024-04-02T00:12:06.434Z,72.14
2024-04-02T00:13:06.444Z,72.14
2024-04-02T00:14:06.454Z,72.03
2024-04-02T00:15:06.423Z,72.14
2024-04-02T00:16:06.409Z,72.24
2024-04-02T00:17:06.415Z,72.24
2024-04-02T00:18:06.364Z,72.14
2024-04-02T00:19:06.546Z,72.24
2024-04-02T00:20:06.379Z,72.03
2024-04-02T00:21:06.368Z,72.24
2024-04-02T00:22:06.323Z,72.34
2024-04-02T00:23:06.296Z,72.34
2024-04-02T00:24:06.296Z,72.34
2024-04-02T00:25:06.283Z,72.24
2024-04-02T00:26:06.287Z,72.24
2024-04-02T00:27:06.255Z,72.24
2024-04-02T00:28:06.247Z,72.14
2024-04-02T00:29:07.324Z,72.24
2024-04-02T00:30:06.460Z,72.14
2024-04-02T00:31:06.220Z,72.14
2024-04-02T00:32:06.243Z,72.24
2024-04-02T00:33:06.231Z,72.14
2024-04-02T00:34:06.193Z,72.14
2024-04-02T00:35:06.198Z,71.93
2024-04-02T00:36:06.188Z,71.93
2024-04-02T00:37:06.184Z,72.03
2024-04-02T00:38:06.146Z,72.03
2024-04-02T00:39:06.130Z,71.93
2024-04-02T00:40:06.146Z,72.03
2024-04-02T00:41:06.120Z,71.93
2024-04-02T00:42:06.099Z,72.03
2024-04-02T00:43:06.137Z,72.14
2024-04-02T00:44:06.102Z,72.24
2024-04-02T00:45:06.069Z,72.14
2024-04-02T00:46:06.078Z,72.14
2024-04-02T00:47:06.083Z,72.14
2024-04-02T00:48:06.074Z,72.14
2024-04-02T00:49:06.468Z,72.14
2024-04-02T00:50:06.075Z,72.14
2024-04-02T00:51:06.019Z,72.03
2024-04-02T00:52:06.021Z,72.03
2024-04-02T00:53:06.012Z,72.03
2024-04-02T00:54:06.005Z,72.03
2024-04-02T00:55:05.959Z,72.14
2024-04-02T00:56:05.969Z,72.14
2024-04-02T00:57:05.924Z,72.24
2024-04-02T00:58:05.942Z,72.27
2024-04-02T00:59:05.954Z,72.24
2024-04-02T01:00:05.963Z,72.24
2024-04-02T01:01:05.993Z,72.24
2024-04-02T01:02:05.918Z,72.24
2024-04-02T01:03:05.870Z,72.14
2024-04-02T01:04:05.845Z,71.93
2024-04-02T01:05:05.900Z,71.93
2024-04-02T01:06:05.831Z,71.93
2024-04-02T01:07:05.813Z,71.93
2024-04-02T01:08:05.898Z,72.03
2024-04-02T01:09:05.813Z,71.93
2024-04-02T01:10:05.796Z,71.93
2024-04-02T01:11:05.859Z,71.83
2024-04-02T01:12:05.799Z,71.93
2024-04-02T01:13:05.945Z,71.93
2024-04-02T01:14:05.816Z,71.93
2024-04-02T01:15:05.728Z,71.72
2024-04-02T01:16:05.786Z,71.72
2024-04-02T01:17:05.715Z,71.83
2024-04-02T01:18:05.717Z,71.72
2024-04-02T01:19:05.674Z,71.62
2024-04-02T01:20:05.754Z,71.62
2024-04-02T01:21:05.690Z,71.52
2024-04-02T01:22:05.662Z,71.52
2024-04-02T01:23:05.643Z,71.52
2024-04-02T01:24:05.632Z,71.52
2024-04-02T01:25:05.638Z,71.62
2024-04-02T01:26:05.725Z,71.52
2024-04-02T01:27:05.614Z,71.52
2024-04-02T01:28:05.594Z,71.42
2024-04-02T01:29:05.639Z,71.21
2024-04-02T01:30:05.550Z,71.21
2024-04-02T01:31:05.549Z,71.01
2024-04-02T01:32:05.612Z,71.01
2024-04-02T01:33:05.570Z,71.11
2024-04-02T01:34:05.505Z,71.11
2024-04-02T01:35:05.567Z,71.01
2024-04-02T01:36:05.513Z,71.01
2024-04-02T01:37:05.471Z,70.90
2024-04-02T01:38:05.517Z,70.90
2024-04-02T01:39:05.481Z,70.90
2024-04-02T01:40:05.480Z,71.01
2024-04-02T01:41:05.439Z,71.01
2024-04-02T01:42:05.432Z,70.87
2024-04-02T01:43:05.410Z,70.90
2024-04-02T01:44:05.393Z,70.70
2024-04-02T01:45:05.404Z,70.80
2024-04-02T01:46:05.465Z,70.67
2024-04-02T01:47:05.360Z,70.80
2024-04-02T01:48:05.372Z,70.77
2024-04-02T01:49:05.340Z,70.80
2024-04-02T01:50:05.403Z,70.80
2024-04-02T01:51:05.337Z,70.90
2024-04-02T01:52:05.310Z,70.90
2024-04-02T01:53:05.878Z,70.80
2024-04-02T01:54:05.302Z,70.90
2024-04-02T01:55:05.295Z,70.80
2024-04-02T01:56:05.278Z,70.90
2024-04-02T01:57:05.272Z,70.80
2024-04-02T01:58:05.266Z,70.80
2024-04-02T01:59:05.240Z,70.80
2024-04-02T02:00:05.247Z,70.70
2024-04-02T02:01:05.214Z,70.70
2024-04-02T02:02:05.213Z,70.70
2024-04-02T02:03:05.228Z,70.70
2024-04-02T02:04:05.194Z,70.80
2024-04-02T02:05:05.159Z,70.80
2024-04-02T02:06:05.157Z,70.70
2024-04-02T02:07:05.162Z,70.70
2024-04-02T02:08:05.138Z,70.50
2024-04-02T02:09:05.131Z,70.50
2024-04-02T02:10:05.111Z,70.50
2024-04-02T02:11:05.105Z,70.39
2024-04-02T02:12:05.094Z,70.50
2024-04-02T02:13:05.088Z,70.39
2024-04-02T02:14:05.122Z,70.29
2024-04-02T02:15:05.046Z,70.39
2024-04-02T02:16:05.084Z,70.39
2024-04-02T02:17:05.025Z,70.50
2024-04-02T02:18:05.030Z,70.50
2024-04-02T02:19:05.025Z,70.39
2024-04-02T02:20:05.002Z,70.50
2024-04-02T02:21:05.000Z,70.50
2024-04-02T02:22:04.972Z,70.50
2024-04-02T02:23:05.018Z,70.50
2024-04-02T02:24:04.972Z,70.39
2024-04-02T02:25:04.982Z,70.50
2024-04-02T02:26:04.948Z,70.50
2024-04-02T02:27:05.099Z,70.50
2024-04-02T02:28:04.935Z,70.50
2024-04-02T02:29:04.903Z,70.60
2024-04-02T02:30:04.878Z,70.50
2024-04-02T02:31:04.919Z,70.60
2024-04-02T02:32:06.208Z,70.70
2024-04-02T02:33:04.880Z,70.60
2024-04-02T02:34:04.848Z,70.60
2024-04-02T02:35:04.858Z,70.60
2024-04-02T02:36:04.841Z,70.80
2024-04-02T02:37:04.875Z,70.80
2024-04-02T02:38:04.819Z,70.80
2024-04-02T02:39:04.872Z,70.80
2024-04-02T02:40:04.881Z,70.80
2024-04-02T02:41:04.778Z,70.90
2024-04-02T02:42:04.842Z,70.80
2024-04-02T02:43:04.740Z,70.80
2024-04-02T02:44:04.720Z,70.80
2024-04-02T02:45:04.755Z,70.80
2024-04-02T02:46:04.711Z,70.90
2024-04-02T02:47:04.715Z,70.90
2024-04-02T02:48:04.694Z,71.01
2024-04-02T02:49:04.682Z,70.80
2024-04-02T02:50:04.678Z,70.80
2024-04-02T02:51:04.694Z,70.90
2024-04-02T02:52:04.741Z,70.80
2024-04-02T02:53:04.638Z,70.90
2024-04-02T02:54:04.641Z,70.90
2024-04-02T02:55:04.636Z,70.80
2024-04-02T02:56:04.639Z,70.80
2024-04-02T02:57:04.639Z,70.80
2024-04-02T02:58:04.690Z,70.80
2024-04-02T02:59:04.580Z,70.70
2024-04-02T03:00:04.621Z,70.80
2024-04-02T03:01:04.607Z,70.80
2024-04-02T03:02:04.533Z,70.70
2024-04-02T03:03:04.591Z,70.60
2024-04-02T03:04:04.507Z,70.60
2024-04-02T03:05:04.969Z,70.60
2024-04-02T03:06:04.510Z,70.50
2024-04-02T03:07:04.488Z,70.39
2024-04-02T03:08:04.579Z,70.50
2024-04-02T03:09:04.451Z,70.39
2024-04-02T03:10:04.578Z,70.29
2024-04-02T03:11:06.452Z,70.29
2024-04-02T03:12:04.942Z,70.29
2024-04-02T03:13:04.419Z,70.39
2024-04-02T03:14:04.452Z,70.39
2024-04-02T03:15:05.011Z,70.39
2024-04-02T03:16:04.386Z,70.39
2024-04-02T03:17:04.362Z,70.29
2024-04-02T03:18:05.436Z,70.29
2024-04-02T03:19:04.419Z,70.29
2024-04-02T03:20:04.342Z,70.39
2024-04-02T03:21:04.441Z,70.39
2024-04-02T03:22:04.314Z,70.39
2024-04-02T03:23:04.838Z,70.39
2024-04-02T03:24:04.324Z,70.29
2024-04-02T03:25:04.297Z,70.39
2024-04-02T03:26:04.276Z,70.39
2024-04-02T03:27:04.268Z,70.42
2024-04-02T03:28:04.236Z,70.42
2024-04-02T03:29:04.247Z,70.53
2024-04-02T03:30:04.217Z,70.53
2024-04-02T03:31:05.324Z,70.63
2024-04-02T03:32:04.209Z,70.73
2024-04-02T03:33:04.244Z,70.73
2024-04-02T03:34:04.210Z,70.53
2024-04-02T03:35:04.180Z,70.53
2024-04-02T03:36:04.193Z,70.63
2024-04-02T03:37:04.139Z,70.53
2024-04-02T03:38:04.143Z,70.50
2024-04-02T03:39:04.124Z,70.39
2024-04-02T03:40:04.105Z,70.53
2024-04-02T03:41:04.110Z,70.50
2024-04-02T03:42:04.110Z,70.42
2024-04-02T03:43:04.097Z,70.50
2024-04-02T03:44:04.060Z,70.50
2024-04-02T03:45:04.063Z,70.53
2024-04-02T03:46:04.058Z,70.53
2024-04-02T03:47:04.029Z,70.53
2024-04-02T03:48:04.045Z,70.53
2024-04-02T03:49:04.089Z,70.63
2024-04-02T03:50:04.012Z,70.63
2024-04-02T03:51:04.019Z,70.63
2024-04-02T03:52:03.966Z,70.63
2024-04-02T03:53:03.988Z,70.73
2024-04-02T03:54:03.970Z,70.84
2024-04-02T03:55:03.944Z,70.84
2024-04-02T03:56:03.968Z,70.84
2024-04-02T03:57:04.447Z,70.84
2024-04-02T03:58:03.953Z,70.73
2024-04-02T03:59:03.944Z,70.84
2024-04-02T04:00:03.875Z,70.84
2024-04-02T04:01:03.927Z,70.84
2024-04-02T04:02:03.883Z,70.73
2024-04-02T04:03:03.913Z,70.73
2024-04-02T04:04:03.898Z,70.73
2024-04-02T04:05:03.830Z,70.84
2024-04-02T04:06:03.820Z,70.94
2024-04-02T04:07:03.835Z,70.94
2024-04-02T04:08:03.806Z,70.84
2024-04-02T04:09:03.917Z,70.84
2024-04-02T04:10:03.785Z,70.84
2024-04-02T04:11:03.884Z,70.84
2024-04-02T04:12:03.764Z,70.73
2024-04-02T04:13:03.791Z,70.84
2024-04-02T04:14:03.730Z,70.84
2024-04-02T04:15:03.760Z,70.84
2024-04-02T04:16:03.743Z,70.94
2024-04-02T04:17:03.727Z,71.04
2024-04-02T04:18:03.742Z,71.04
2024-04-02T04:19:03.716Z,70.94
2024-04-02T04:20:03.748Z,71.04
2024-04-02T04:21:03.701Z,70.94
2024-04-02T04:22:03.647Z,70.94
2024-04-02T04:23:03.635Z,70.94
2024-04-02T04:24:03.626Z,71.04
2024-04-02T04:25:03.640Z,71.14
2024-04-02T04:26:03.644Z,71.14
2024-04-02T04:27:03.578Z,71.25
2024-04-02T04:28:03.570Z,71.25
2024-04-02T04:29:03.564Z,71.45
2024-04-02T04:30:04.325Z,71.45
2024-04-02T04:31:03.576Z,71.55
2024-04-02T04:32:03.598Z,71.55
2024-04-02T04:33:03.530Z,71.66
2024-04-02T04:34:03.560Z,71.66
2024-04-02T04:35:03.503Z,71.76
2024-04-02T04:36:03.519Z,71.76
2024-04-02T04:37:03.496Z,71.66
2024-04-02T04:38:03.474Z,71.66
2024-04-02T04:39:03.534Z,71.55
2024-04-02T04:40:03.473Z,71.55
2024-04-02T04:41:03.548Z,71.66
2024-04-02T04:42:04.113Z,71.55
2024-04-02T04:43:03.475Z,71.55
2024-04-02T04:44:03.489Z,71.55
2024-04-02T04:45:03.505Z,71.55
2024-04-02T04:46:03.372Z,71.55
2024-04-02T04:47:03.384Z,71.66
2024-04-02T04:48:03.350Z,71.66
2024-04-02T04:49:03.439Z,71.66
2024-04-02T04:50:03.446Z,71.66
2024-04-02T04:51:03.325Z,71.76
2024-04-02T04:52:04.859Z,71.66
2024-04-02T04:53:03.965Z,71.66
2024-04-02T04:54:03.324Z,71.76
2024-04-02T04:55:03.299Z,71.66
2024-04-02T04:56:03.348Z,71.76
2024-04-02T04:57:03.288Z,71.66
2024-04-02T04:58:03.282Z,71.76
2024-04-02T04:59:03.277Z,71.76
2024-04-02T05:00:03.263Z,71.76
2024-04-02T05:01:03.223Z,71.76
2024-04-02T05:02:03.229Z,71.76
2024-04-02T05:03:03.204Z,71.86
2024-04-02T05:04:03.194Z,71.86
2024-04-02T05:05:03.191Z,71.97
2024-04-02T05:06:03.147Z,71.86
2024-04-02T05:07:03.174Z,71.86
2024-04-02T05:08:03.198Z,71.86
2024-04-02T05:09:03.886Z,71.97
2024-04-02T05:10:03.133Z,71.97
2024-04-02T05:11:03.131Z,71.97
2024-04-02T05:12:03.113Z,71.97
2024-04-02T05:13:03.759Z,71.86
2024-04-02T05:14:03.826Z,71.86
2024-04-02T05:15:04.189Z,71.76
2024-04-02T05:16:03.874Z,71.86
2024-04-02T05:17:03.179Z,71.76
2024-04-02T05:18:03.834Z,71.86
2024-04-02T05:19:03.237Z,71.86
2024-04-02T05:20:03.029Z,71.76
2024-04-02T05:21:02.978Z,71.76
2024-04-02T05:22:02.998Z,71.66
2024-04-02T05:23:02.993Z,71.66
2024-04-02T05:24:03.060Z,71.55
2024-04-02T05:25:02.941Z,71.45
2024-04-02T05:26:02.909Z,71.55
2024-04-02T05:27:03.573Z,71.45
2024-04-02T05:28:02.899Z,71.45
2024-04-02T05:29:02.889Z,71.35
2024-04-02T05:30:02.969Z,71.35
2024-04-02T05:31:02.869Z,71.35
2024-04-02T05:32:02.859Z,71.35
2024-04-02T05:33:02.853Z,71.35
2024-04-02T05:34:02.843Z,71.35
2024-04-02T05:35:02.822Z,71.35
2024-04-02T05:36:02.822Z,71.35
2024-04-02T05:37:02.821Z,71.35
2024-04-02T05:38:02.812Z,71.45
2024-04-02T05:39:02.813Z,71.52
2024-04-02T05:40:02.783Z,71.52
2024-04-02T05:41:02.766Z,71.52
2024-04-02T05:42:02.762Z,71.52
2024-04-02T05:43:02.736Z,71.62
2024-04-02T05:44:02.721Z,71.52
2024-04-02T05:45:02.721Z,71.62
2024-04-02T05:46:02.718Z,71.62
2024-04-02T05:47:02.693Z,71.62
2024-04-02T05:48:02.722Z,71.62
2024-04-02T05:49:03.579Z,71.52
2024-04-02T05:50:02.763Z,71.62
2024-04-02T05:51:03.785Z,71.62
2024-04-02T05:52:02.662Z,71.42
2024-04-02T05:53:02.631Z,71.42
2024-04-02T05:54:02.610Z,71.31
2024-04-02T05:55:02.783Z,71.42
2024-04-02T05:56:02.602Z,71.21
2024-04-02T05:57:02.831Z,71.21
2024-04-02T05:58:02.565Z,71.21
2024-04-02T05:59:02.562Z,71.11
2024-04-02T06:00:02.576Z,71.21
2024-04-02T06:01:03.379Z,71.11
2024-04-02T06:02:02.520Z,71.01
2024-04-02T06:03:02.527Z,70.80
2024-04-02T06:04:02.499Z,70.90
2024-04-02T06:05:02.514Z,70.90
2024-04-02T06:06:02.481Z,70.80
2024-04-02T06:07:02.497Z,70.90
2024-04-02T06:08:02.469Z,70.80
2024-04-02T06:09:02.537Z,70.90
2024-04-02T06:10:02.469Z,70.80
2024-04-02T06:11:02.439Z,70.80
2024-04-02T06:12:02.461Z,70.90
2024-04-02T06:13:02.411Z,70.90
2024-04-02T06:14:02.417Z,71.01
2024-04-02T06:15:02.468Z,70.90
2024-04-02T06:16:02.389Z,71.01
2024-04-02T06:17:02.358Z,71.01
2024-04-02T06:18:02.334Z,70.90
2024-04-02T06:19:02.349Z,70.60
2024-04-02T06:20:02.343Z,70.50
2024-04-02T06:21:02.308Z,70.39
2024-04-02T06:22:02.318Z,70.29
2024-04-02T06:23:05.917Z,70.18
2024-04-02T06:24:02.351Z,69.98
2024-04-02T06:25:02.317Z,69.67
2024-04-02T06:26:02.260Z,69.78
2024-04-02T06:27:02.253Z,69.67
2024-04-02T06:28:02.227Z,69.67
2024-04-02T06:29:02.304Z,69.16
2024-04-02T06:30:02.417Z,68.92
2024-04-02T06:31:02.247Z,68.92
2024-04-02T06:32:02.188Z,68.82
2024-04-02T06:33:02.211Z,68.72
2024-04-02T06:34:02.271Z,68.82
2024-04-02T06:35:02.196Z,68.62
2024-04-02T06:36:02.141Z,68.51
2024-04-02T06:37:02.263Z,68.21
2024-04-02T06:38:02.138Z,68.21
2024-04-02T06:39:02.119Z,68.10
2024-04-02T06:40:02.115Z,68.07
2024-04-02T06:41:02.098Z,68.07
2024-04-02T06:42:02.087Z,67.86
2024-04-02T06:43:02.071Z,67.76
2024-04-02T06:44:02.124Z,67.76
2024-04-02T06:45:02.058Z,67.66
2024-04-02T06:46:02.066Z,67.66
2024-04-02T06:47:02.026Z,67.76
2024-04-02T06:48:02.019Z,67.66
2024-04-02T06:49:02.094Z,67.22
2024-04-02T06:50:02.024Z,67.22
2024-04-02T06:51:02.115Z,67.02
2024-04-02T06:52:02.021Z,67.11
2024-04-02T06:53:02.035Z,67.02
2024-04-02T06:54:01.953Z,66.91
2024-04-02T06:55:01.927Z,66.50
2024-04-02T06:56:01.952Z,66.50
2024-04-02T06:57:02.588Z,66.40
2024-04-02T06:58:01.925Z,66.40
2024-04-02T06:59:01.889Z,66.22
2024-04-02T07:00:01.885Z,66.43
2024-04-02T07:01:01.904Z,66.43
2024-04-02T07:02:01.870Z,66.53
2024-04-02T07:03:01.850Z,66.53
2024-04-02T07:04:01.924Z,66.33
2024-04-02T07:05:01.835Z,66.53
2024-04-02T07:06:01.872Z,66.43
2024-04-02T07:07:01.802Z,66.43
2024-04-02T07:08:01.808Z,66.53
2024-04-02T07:09:01.839Z,66.53
2024-04-02T07:10:01.772Z,66.40
2024-04-02T07:11:01.754Z,66.40
2024-04-02T07:12:01.934Z,66.40
2024-04-02T07:13:03.162Z,66.30
2024-04-02T07:14:02.570Z,66.19
2024-04-02T07:15:02.810Z,65.99
2024-04-02T07:16:05.773Z,65.78
2024-04-02T07:17:01.808Z,65.68
2024-04-02T07:18:01.854Z,65.58
2024-04-02T07:19:01.788Z,65.68
2024-04-02T07:20:01.783Z,65.58
2024-04-02T07:21:01.677Z,65.78
2024-04-02T07:22:01.690Z,65.78
2024-04-02T07:23:01.617Z,65.89
2024-04-02T07:24:01.635Z,65.68
2024-04-02T07:25:01.612Z,65.78
2024-04-02T07:26:01.624Z,65.68
2024-04-02T07:27:01.656Z,65.78
2024-04-02T07:28:01.603Z,65.89
2024-04-02T07:29:01.583Z,65.58
2024-04-02T07:30:01.556Z,65.58
2024-04-02T07:31:01.571Z,65.24
2024-04-02T07:32:03.290Z,65.34
2024-04-02T07:33:01.515Z,65.34
2024-04-02T07:34:01.544Z,65.14
2024-04-02T07:35:01.522Z,65.34
2024-04-02T07:36:01.503Z,65.24
2024-04-02T07:37:01.462Z,65.24
2024-04-02T07:38:01.515Z,65.45
2024-04-02T07:39:01.441Z,65.34
2024-04-02T07:40:01.528Z,65.24
2024-04-02T07:41:01.436Z,65.04
2024-04-02T07:42:01.438Z,65.04
2024-04-02T07:43:01.411Z,65.24
2024-04-02T07:44:01.391Z,65.21
2024-04-02T07:45:01.452Z,64.90
2024-04-02T07:46:01.360Z,64.50
2024-04-02T07:47:01.363Z,64.70
2024-04-02T07:48:01.382Z,64.70
2024-04-02T07:49:01.364Z,64.29
2024-04-02T07:50:01.541Z,64.29
2024-04-02T07:51:01.345Z,64.39
2024-04-02T07:52:01.309Z,64.29
2024-04-02T07:53:01.849Z,64.16
2024-04-02T07:54:01.285Z,64.06
2024-04-02T07:55:01.343Z,64.06
2024-04-02T07:56:01.289Z,64.36
2024-04-02T07:57:01.508Z,63.95
2024-04-02T07:58:01.266Z,64.16
2024-04-02T07:59:01.312Z,63.95
2024-04-02T08:00:01.249Z,64.03
2024-04-02T08:01:01.203Z,64.03
2024-04-02T08:02:01.192Z,63.72
2024-04-02T08:03:01.177Z,62.80
2024-04-02T08:04:01.195Z,63.03
2024-04-02T08:05:01.174Z,63.10
2024-04-02T08:06:01.225Z,63.31
2024-04-02T08:07:01.126Z,63.21
2024-04-02T08:08:01.955Z,63.00
2024-04-02T08:09:01.110Z,63.10
2024-04-02T08:10:02.394Z,62.70
2024-04-02T08:11:01.108Z,62.80
2024-04-02T08:12:01.104Z,62.80
2024-04-02T08:13:01.055Z,62.90
2024-04-02T08:14:01.084Z,63.21
2024-04-02T08:15:01.039Z,63.10
2024-04-02T08:16:01.038Z,63.10
2024-04-02T08:17:01.016Z,63.10
2024-04-02T08:18:01.124Z,62.98
2024-04-02T08:19:01.061Z,62.77
2024-04-02T08:20:01.021Z,62.87
2024-04-02T08:21:01.101Z,62.87
2024-04-02T08:22:00.972Z,62.87
2024-04-02T08:23:00.994Z,62.66
2024-04-02T08:24:00.951Z,62.57
2024-04-02T08:25:01.045Z,62.57
2024-04-02T08:26:01.043Z,62.43
2024-04-02T08:27:00.963Z,62.54
2024-04-02T08:28:02.103Z,62.02
2024-04-02T08:29:00.880Z,62.13
2024-04-02T08:30:00.925Z,62.13
2024-04-02T08:31:00.910Z,62.13
2024-04-02T08:32:00.948Z,61.58
2024-04-02T08:33:00.918Z,61.41
2024-04-02T08:34:00.829Z,61.38
2024-04-02T08:35:00.814Z,61.18
2024-04-02T08:36:00.810Z,61.08
2024-04-02T08:37:01.423Z,61.18
2024-04-02T08:38:00.872Z,61.31
2024-04-02T08:39:00.794Z,61.31
2024-04-02T08:40:00.773Z,61.21
2024-04-02T08:41:00.745Z,61.28
2024-04-02T08:42:16.816Z,61.18
2024-04-02T08:43:00.755Z,61.38
2024-04-02T08:44:00.825Z,61.08
2024-04-02T08:45:01.159Z,60.87
2024-04-02T08:46:00.802Z,60.90
2024-04-02T08:47:00.699Z,61.10
2024-04-02T08:48:00.713Z,61.10
2024-04-02T08:49:01.438Z,61.21
2024-04-02T08:50:00.690Z,61.31
2024-04-02T08:51:00.649Z,61.41
2024-04-02T08:52:00.645Z,61.49
2024-04-02T08:53:00.641Z,60.77
2024-04-02T08:54:00.623Z,60.67
2024-04-02T08:55:00.616Z,60.77
2024-04-02T08:56:00.606Z,60.57
2024-04-02T08:57:00.591Z,60.46
2024-04-02T08:58:00.603Z,60.67
2024-04-02T08:59:01.491Z,60.67
2024-04-02T09:00:00.558Z,60.87
2024-04-02T09:01:00.613Z,60.97
2024-04-02T09:02:01.051Z,60.87
2024-04-02T09:03:00.502Z,60.57
2024-04-02T09:04:00.529Z,60.67
2024-04-02T09:05:00.498Z,61.08
2024-04-02T09:06:00.490Z,61.08
2024-04-02T09:07:00.496Z,60.87
2024-04-02T09:08:00.458Z,60.97
2024-04-02T09:09:00.456Z,61.38
2024-04-02T09:10:00.513Z,60.77
2024-04-02T09:11:00.458Z,60.57
2024-04-02T09:12:00.423Z,60.57
2024-04-02T09:13:00.480Z,60.49
2024-04-02T09:14:00.393Z,60.90
2024-04-02T09:15:00.422Z,61.10
2024-04-02T09:16:00.461Z,61.10
2024-04-02T09:17:00.373Z,60.80
2024-04-02T09:18:00.393Z,60.90
2024-04-02T09:19:01.365Z,61.00
2024-04-02T09:20:00.358Z,61.21
2024-04-02T09:21:00.414Z,61.00
2024-04-02T09:22:00.329Z,60.90
2024-04-02T09:23:00.290Z,61.00
2024-04-02T09:24:00.293Z,61.10
2024-04-02T09:25:00.315Z,61.00
2024-04-02T09:26:00.269Z,61.10
2024-04-02T09:27:00.271Z,61.00
2024-04-02T09:28:00.241Z,60.80
2024-04-02T09:29:00.220Z,60.60
2024-04-02T09:30:00.245Z,60.28
2024-04-02T09:31:00.251Z,60.60
2024-04-02T09:32:00.212Z,60.46
2024-04-02T09:33:00.176Z,60.36
2024-04-02T09:34:00.263Z,60.05
2024-04-02T09:35:00.167Z,60.26
2024-04-02T09:36:00.168Z,60.26
2024-04-02T09:37:00.169Z,59.85
2024-04-02T09:38:00.198Z,59.14
2024-04-02T09:39:00.121Z,59.14
2024-04-02T09:40:00.243Z,59.03
2024-04-02T09:41:00.094Z,58.52
2024-04-02T09:42:03.131Z,58.42
2024-04-02T09:43:00.091Z,58.52
2024-04-02T09:44:00.219Z,58.60
2024-04-02T09:45:00.178Z,58.29
2024-04-02T09:46:00.086Z,57.98
2024-04-02T09:47:00.107Z,57.78
2024-04-02T09:48:00.103Z,57.57
2024-04-02T09:49:00.129Z,57.78
2024-04-02T09:50:00.023Z,57.68
2024-04-02T09:51:00.017Z,57.57
2024-04-02T09:51:59.984Z,57.68
2024-04-02T09:52:59.970Z,57.78
2024-04-02T09:54:59.978Z,57.86
2024-04-02T09:55:59.920Z,57.65
2024-04-02T09:57:00.606Z,57.14
2024-04-02T09:58:00.034Z,56.84
2024-04-02T09:58:59.913Z,57.04
2024-04-02T09:59:59.876Z,56.71
2024-04-02T10:00:59.925Z,56.91
2024-04-02T10:01:59.875Z,56.91
2024-04-02T10:03:00.465Z,56.81
2024-04-02T10:03:59.974Z,56.43
2024-04-02T10:04:59.827Z,56.43
2024-04-02T10:05:59.846Z,56.63
2024-04-02T10:07:03.487Z,56.43
2024-04-02T10:07:59.807Z,56.53
2024-04-02T10:08:59.775Z,56.73
2024-04-02T10:09:59.780Z,56.73
2024-04-02T10:10:59.757Z,56.94
2024-04-02T10:11:59.770Z,57.04
2024-04-02T10:13:01.449Z,56.94
2024-04-02T10:13:59.760Z,56.73
2024-04-02T10:14:59.746Z,56.84
2024-04-02T10:15:59.708Z,56.45
2024-04-02T10:16:59.770Z,56.45
2024-04-02T10:17:59.704Z,56.04
2024-04-02T10:18:59.710Z,55.74
2024-04-02T10:19:59.724Z,55.94
2024-04-02T10:20:59.690Z,55.84
2024-04-02T10:21:59.738Z,55.54
2024-04-02T10:22:59.628Z,55.43
2024-04-02T10:23:59.691Z,55.43
2024-04-02T10:25:00.351Z,55.20
2024-04-02T10:25:59.621Z,55.30
2024-04-02T10:26:59.756Z,55.20
2024-04-02T10:27:59.685Z,55.00
2024-04-02T10:28:59.587Z,55.00
2024-04-02T10:29:59.552Z,54.90
2024-04-02T10:30:59.582Z,55.10
2024-04-02T10:31:59.566Z,54.90
2024-04-02T10:32:59.528Z,55.10
2024-04-02T10:33:59.502Z,55.51
2024-04-02T10:34:59.559Z,55.51
2024-04-02T10:35:59.498Z,55.30
2024-04-02T10:36:59.467Z,55.18
2024-04-02T10:37:59.453Z,54.97
2024-04-02T10:38:59.514Z,54.87
2024-04-02T10:39:59.471Z,54.87
2024-04-02T10:40:59.452Z,54.64
2024-04-02T10:41:59.994Z,54.33
2024-04-02T10:42:59.409Z,54.33
2024-04-02T10:43:59.393Z,54.24
2024-04-02T10:44:59.416Z,54.33
2024-04-02T10:45:59.519Z,54.33
2024-04-02T10:46:59.395Z,54.24
2024-04-02T10:47:59.348Z,54.13
2024-04-02T10:48:59.358Z,54.24
2024-04-02T10:50:00.358Z,54.24
2024-04-02T10:50:59.324Z,53.83
2024-04-02T10:51:59.318Z,53.92
2024-04-02T10:52:59.288Z,53.92
2024-04-02T10:53:59.291Z,54.13
2024-04-02T10:54:59.320Z,54.11
2024-04-02T10:55:59.291Z,53.90
2024-04-02T10:56:59.258Z,54.00
2024-04-02T10:57:59.258Z,53.80
2024-04-02T10:58:59.266Z,53.98
2024-04-02T10:59:59.263Z,53.98
2024-04-02T11:00:59.284Z,53.37
2024-04-02T11:01:59.199Z,52.83
2024-04-02T11:02:59.188Z,52.73
2024-04-02T11:03:59.177Z,52.33
2024-04-02T11:04:59.205Z,51.61
2024-04-02T11:05:59.163Z,51.28
2024-04-02T11:06:59.164Z,51.18
2024-04-02T11:07:59.121Z,51.39
2024-04-02T11:08:59.149Z,50.87
2024-04-02T11:09:59.109Z,50.67
2024-04-02T11:10:59.176Z,50.67
2024-04-02T11:11:59.192Z,50.67
2024-04-02T11:12:59.069Z,50.57
2024-04-02T11:13:59.064Z,50.37
2024-04-02T11:14:59.080Z,50.67
2024-04-02T11:15:59.192Z,50.34
2024-04-02T11:16:59.024Z,50.34
2024-04-02T11:17:59.009Z,49.73
2024-04-02T11:18:59.021Z,49.53
2024-04-02T11:19:59.180Z,49.63
2024-04-02T11:20:59.000Z,49.84
2024-04-02T11:21:58.968Z,49.94
2024-04-02T11:22:58.970Z,50.04
2024-04-02T11:23:59.012Z,50.04
2024-04-02T11:25:00.225Z,49.73
2024-04-02T11:25:58.952Z,49.63
2024-04-02T11:26:58.933Z,48.92
2024-04-02T11:27:58.908Z,48.61
2024-04-02T11:28:59.637Z,47.90
2024-04-02T11:29:58.913Z,47.90
2024-04-02T11:30:58.873Z,48.31
2024-04-02T11:31:58.854Z,47.90
2024-04-02T11:32:58.862Z,47.70
2024-04-02T11:33:59.477Z,47.90
2024-04-02T11:34:58.858Z,47.70
2024-04-02T11:35:59.016Z,47.88
2024-04-02T11:36:58.839Z,47.58
2024-04-02T11:37:58.995Z,47.98
2024-04-02T11:38:58.900Z,47.37
2024-04-02T11:39:58.980Z,47.17
2024-04-02T11:40:58.866Z,47.17
2024-04-02T11:41:58.792Z,47.27
2024-04-02T11:42:58.770Z,47.37
2024-04-02T11:43:58.731Z,47.55
2024-04-02T11:44:58.729Z,47.55
2024-04-02T11:45:58.830Z,47.25
2024-04-02T11:46:59.027Z,47.27
2024-04-02T11:47:59.296Z,47.47
2024-04-02T11:48:58.690Z,47.37
2024-04-02T11:49:58.704Z,47.17
2024-04-02T11:50:58.659Z,46.97
2024-04-02T11:51:58.710Z,47.17
2024-04-02T11:52:59.079Z,47.06
2024-04-02T11:53:58.629Z,47.17
2024-04-02T11:54:58.635Z,46.86
2024-04-02T11:55:58.596Z,46.86
2024-04-02T11:56:58.704Z,47.06
2024-04-02T11:57:58.679Z,47.37
2024-04-02T11:58:58.570Z,47.47
2024-04-02T11:59:58.661Z,47.88
2024-04-02T12:01:00.976Z,47.78
2024-04-02T12:01:58.558Z,47.67
2024-04-02T12:02:59.757Z,47.58
2024-04-02T12:03:58.548Z,47.78
2024-04-02T12:04:58.590Z,47.58
2024-04-02T12:05:58.624Z,47.78
2024-04-02T12:06:58.538Z,47.67
2024-04-02T12:07:58.454Z,48.90
2024-04-02T12:08:58.462Z,47.58
2024-04-02T12:09:58.435Z,47.58
2024-04-02T12:10:58.446Z,47.55
2024-04-02T12:12:00.098Z,47.35
2024-04-02T12:12:58.771Z,47.45
2024-04-02T12:13:59.431Z,47.25
2024-04-02T12:14:58.385Z,47.75
2024-04-02T12:15:58.389Z,47.96
2024-04-02T12:16:58.385Z,48.08
2024-04-02T12:17:58.352Z,47.78
2024-04-02T12:18:58.411Z,47.58
2024-04-02T12:19:58.355Z,47.58
2024-04-02T12:20:58.352Z,47.78
2024-04-02T12:21:59.763Z,47.96
2024-04-02T12:22:58.295Z,47.86
2024-04-02T12:23:58.306Z,47.96
2024-04-02T12:24:58.280Z,47.74
2024-04-02T12:25:58.312Z,47.13
2024-04-02T12:26:58.281Z,47.33
2024-04-02T12:27:58.244Z,47.53
2024-04-02T12:28:58.695Z,47.43
2024-04-02T12:29:58.241Z,47.43
2024-04-02T12:30:59.250Z,46.92
2024-04-02T12:31:58.220Z,47.43
2024-04-02T12:32:58.322Z,47.43
2024-04-02T12:33:58.201Z,47.66
2024-04-02T12:34:58.162Z,47.75
2024-04-02T12:35:58.152Z,47.96
2024-04-02T12:36:58.177Z,48.04
2024-04-02T12:37:58.211Z,47.94
2024-04-02T12:38:58.210Z,48.24
2024-04-02T12:39:58.111Z,48.95
2024-04-02T12:40:58.120Z,48.11
2024-04-02T12:41:58.138Z,47.71
2024-04-02T12:42:58.069Z,47.91
2024-04-02T12:43:58.529Z,47.41
2024-04-02T12:44:58.078Z,47.71
2024-04-02T12:45:58.499Z,47.41
2024-04-02T12:46:58.265Z,47.20
2024-04-02T12:47:58.064Z,47.81
2024-04-02T12:49:08.386Z,47.41
2024-04-02T12:49:58.047Z,47.30
2024-04-02T12:50:58.004Z,47.13
2024-04-02T12:51:57.990Z,47.53
2024-04-02T12:52:58.003Z,47.94